createdAt,value
2018-05-04T00:00:18.328Z,51.23
2018-05-04T00:01:20.813Z,51.23
2018-05-04T00:02:23.321Z,51.27
2018-05-04T00:03:25.871Z,51.29
2018-05-04T00:04:28.342Z,51.35
2018-05-04T00:05:30.887Z,51.40
2018-05-04T00:06:33.448Z,51.46
2018-05-04T00:07:36.011Z,51.48
2018-05-04T00:08:38.566Z,51.48
2018-05-04T00:09:41.049Z,51.48
2018-05-04T00:10:43.518Z,51.48
2018-05-04T00:11:46.021Z,51.53
2018-05-04T00:12:48.577Z,51.56
2018-05-04T00:13:51.066Z,51.55
2018-05-04T00:14:53.553Z,51.59
2018-05-04T00:15:56.033Z,51.58
2018-05-04T00:16:58.533Z,51.62
2018-05-04T00:18:01.035Z,51.70
2018-05-04T00:19:03.571Z,51.67
2018-05-04T00:20:06.047Z,51.71
2018-05-04T00:21:08.551Z,51.80
2018-05-04T00:22:11.027Z,51.82
2018-05-04T00:23:13.547Z,51.80
2018-05-04T00:24:16.052Z,51.74
2018-05-04T00:25:18.536Z,51.81
2018-05-04T00:26:21.029Z,51.85
2018-05-04T00:27:23.518Z,51.87
2018-05-04T00:28:26.023Z,51.87
2018-05-04T00:29:28.529Z,51.87
2018-05-04T00:30:31.096Z,51.86
2018-05-04T00:31:33.589Z,51.86
2018-05-04T00:32:36.072Z,51.84
2018-05-04T00:33:38.566Z,51.88
2018-05-04T00:34:41.078Z,51.93
2018-05-04T00:35:43.561Z,51.92
2018-05-04T00:36:46.135Z,51.92
2018-05-04T00:37:48.639Z,51.94
2018-05-04T00:38:51.114Z,51.98
2018-05-04T00:39:53.626Z,51.96
2018-05-04T00:40:56.113Z,51.98
2018-05-04T00:41:58.594Z,52.00
2018-05-04T00:43:01.105Z,52.04
2018-05-04T00:44:03.669Z,52.04
2018-05-04T00:45:06.223Z,52.09
2018-05-04T00:46:08.781Z,52.06
2018-05-04T00:47:11.269Z,52.10
2018-05-04T00:48:13.757Z,52.13
2018-05-04T00:49:16.248Z,52.09
2018-05-04T00:50:18.757Z,52.11
2018-05-04T00:51:21.259Z,52.12
2018-05-04T00:52:23.745Z,52.13
2018-05-04T00:53:26.255Z,52.14
2018-05-04T00:54:28.726Z,52.15
2018-05-04T00:55:31.240Z,52.16
2018-05-04T00:56:33.743Z,52.19
2018-05-04T00:57:36.248Z,52.19
2018-05-04T00:58:38.737Z,52.16
2018-05-04T00:59:41.244Z,52.22
2018-05-04T01:00:43.753Z,52.23
2018-05-04T01:01:46.240Z,52.22
2018-05-04T01:02:48.739Z,52.24
2018-05-04T01:03:51.215Z,52.25
2018-05-04T01:04:53.705Z,52.26
2018-05-04T01:05:56.234Z,52.26
2018-05-04T01:06:58.735Z,52.30
2018-05-04T01:08:01.223Z,52.29
2018-05-04T01:09:06.364Z,52.31
2018-05-04T01:10:08.856Z,52.31
2018-05-04T01:11:11.354Z,52.29
2018-05-04T01:12:13.826Z,52.35
2018-05-04T01:13:16.302Z,52.34
2018-05-04T01:14:18.829Z,52.32
2018-05-04T01:15:21.386Z,52.39
2018-05-04T01:16:23.949Z,52.38
2018-05-04T01:17:26.438Z,52.39
2018-05-04T01:18:28.967Z,52.41
2018-05-04T01:19:31.457Z,52.42
2018-05-04T01:20:33.945Z,52.41
2018-05-04T01:21:36.496Z,52.43
2018-05-04T01:22:38.999Z,52.54
2018-05-04T01:23:41.474Z,52.58
2018-05-04T01:24:43.960Z,52.60
2018-05-04T01:25:46.465Z,52.69
2018-05-04T01:26:48.995Z,52.70
2018-05-04T01:27:51.485Z,52.68
2018-05-04T01:28:53.976Z,52.69
2018-05-04T01:29:56.483Z,52.73
2018-05-04T01:30:58.972Z,52.76
2018-05-04T01:32:01.477Z,52.79
2018-05-04T01:33:03.942Z,52.77
2018-05-04T01:34:06.503Z,52.79
2018-05-04T01:35:09.011Z,52.83
2018-05-04T01:36:11.497Z,52.82
2018-05-04T01:37:14.028Z,52.81
2018-05-04T01:38:16.531Z,52.82
2018-05-04T01:39:19.029Z,52.82
2018-05-04T01:40:21.517Z,52.83
2018-05-04T01:41:24.063Z,52.84
2018-05-04T01:42:26.551Z,52.86
2018-05-04T01:43:29.079Z,52.89
2018-05-04T01:44:31.583Z,52.89
2018-05-04T01:45:34.094Z,52.87
2018-05-04T01:46:36.585Z,52.85
2018-05-04T01:47:39.090Z,52.86
2018-05-04T01:48:41.595Z,52.84
2018-05-04T01:49:44.071Z,52.88
2018-05-04T01:50:46.553Z,52.84
2018-05-04T01:51:49.034Z,52.95
2018-05-04T01:52:51.601Z,52.88
2018-05-04T01:53:54.112Z,52.86
2018-05-04T01:54:56.600Z,52.79
2018-05-04T01:55:59.100Z,52.79
2018-05-04T01:57:01.585Z,52.85
2018-05-04T01:58:04.089Z,52.93
2018-05-04T01:59:06.578Z,53.02
2018-05-04T02:00:09.050Z,53.01
2018-05-04T02:01:11.521Z,53.08
2018-05-04T02:02:13.992Z,53.15
2018-05-04T02:03:16.478Z,53.12
2018-05-04T02:04:18.965Z,53.22
2018-05-04T02:05:21.459Z,53.26
2018-05-04T02:06:23.930Z,53.29
2018-05-04T02:07:26.417Z,53.30
2018-05-04T02:08:28.925Z,53.30
2018-05-04T02:09:31.397Z,53.32
2018-05-04T02:10:33.902Z,53.34
2018-05-04T02:11:36.389Z,53.37
2018-05-04T02:12:38.916Z,53.44
2018-05-04T02:13:41.476Z,53.44
2018-05-04T02:14:44.038Z,53.45
2018-05-04T02:15:46.523Z,53.45
2018-05-04T02:16:49.053Z,53.51
2018-05-04T02:17:51.548Z,53.50
2018-05-04T02:18:54.048Z,53.53
2018-05-04T02:19:56.536Z,53.53
2018-05-04T02:20:59.032Z,53.55
2018-05-04T02:22:01.503Z,53.58
2018-05-04T02:23:03.989Z,53.57
2018-05-04T02:24:06.492Z,53.58
2018-05-04T02:25:08.995Z,53.57
2018-05-04T02:26:11.500Z,53.60
2018-05-04T02:27:14.008Z,53.64
2018-05-04T02:28:16.495Z,53.65
2018-05-04T02:29:19.006Z,53.66
2018-05-04T02:30:21.524Z,53.74
2018-05-04T02:31:24.028Z,53.79
2018-05-04T02:32:26.526Z,53.77
2018-05-04T02:33:29.013Z,53.71
2018-05-04T02:34:31.552Z,53.16
2018-05-04T02:35:34.045Z,53.31
2018-05-04T02:36:36.563Z,53.41
2018-05-04T02:37:39.034Z,53.43
2018-05-04T02:38:41.559Z,53.40
2018-05-04T02:39:44.145Z,53.47
2018-05-04T02:40:46.709Z,53.48
2018-05-04T02:41:49.269Z,53.53
2018-05-04T02:42:51.757Z,53.70
2018-05-04T02:43:54.252Z,53.73
2018-05-04T02:44:56.742Z,53.75
2018-05-04T02:45:59.237Z,53.76
2018-05-04T02:47:01.726Z,53.78
2018-05-04T02:48:04.216Z,53.80
2018-05-04T02:49:06.704Z,53.83
2018-05-04T02:50:09.219Z,53.77
2018-05-04T02:51:12.653Z,53.83
2018-05-04T02:52:15.177Z,53.86
2018-05-04T02:53:17.660Z,53.84
2018-05-04T02:54:20.194Z,53.82
2018-05-04T02:55:22.732Z,53.88
2018-05-04T02:56:25.226Z,53.88
2018-05-04T02:57:27.732Z,53.91
2018-05-04T02:58:30.220Z,53.87
2018-05-04T02:59:32.747Z,53.87
2018-05-04T03:00:35.252Z,53.83
2018-05-04T03:01:37.759Z,53.86
2018-05-04T03:02:40.267Z,53.91
2018-05-04T03:03:42.757Z,53.92
2018-05-04T03:04:45.228Z,53.96
2018-05-04T03:05:47.740Z,53.95
2018-05-04T03:06:50.224Z,53.93
2018-05-04T03:07:52.709Z,53.90
2018-05-04T03:08:55.197Z,53.92
2018-05-04T03:09:57.703Z,53.93
2018-05-04T03:11:00.217Z,53.94
2018-05-04T03:12:02.687Z,53.90
2018-05-04T03:13:05.160Z,53.86
2018-05-04T03:14:07.630Z,53.92
2018-05-04T03:15:10.146Z,53.92
2018-05-04T03:16:12.639Z,53.93
2018-05-04T03:17:15.121Z,54.02
2018-05-04T03:18:17.587Z,54.11
2018-05-04T03:19:20.073Z,54.17
2018-05-04T03:20:22.557Z,54.13
2018-05-04T03:21:25.050Z,54.06
2018-05-04T03:22:27.555Z,54.09
2018-05-04T03:23:30.060Z,54.04
2018-05-04T03:24:32.549Z,54.00
2018-05-04T03:25:35.054Z,54.03
2018-05-04T03:26:37.573Z,54.11
2018-05-04T03:27:40.069Z,54.12
2018-05-04T03:28:42.630Z,54.12
2018-05-04T03:29:45.102Z,54.16
2018-05-04T03:30:47.649Z,54.18
2018-05-04T03:31:50.143Z,54.20
2018-05-04T03:32:52.619Z,54.19
2018-05-04T03:33:55.123Z,54.33
2018-05-04T03:34:57.613Z,54.34
2018-05-04T03:36:00.092Z,54.29
2018-05-04T03:37:02.593Z,54.25
2018-05-04T03:38:05.081Z,54.20
2018-05-04T03:39:07.589Z,54.22
2018-05-04T03:40:10.085Z,54.27
2018-05-04T03:41:12.591Z,54.28
2018-05-04T03:42:15.089Z,54.22
2018-05-04T03:43:17.628Z,54.19
2018-05-04T03:44:20.121Z,54.19
2018-05-04T03:45:22.617Z,54.17
2018-05-04T03:46:25.088Z,54.15
2018-05-04T03:47:27.588Z,54.12
2018-05-04T03:48:30.095Z,54.11
2018-05-04T03:49:32.574Z,54.06
2018-05-04T03:50:35.062Z,54.03
2018-05-04T03:51:37.567Z,54.03
2018-05-04T03:52:40.099Z,54.01
2018-05-04T03:53:42.606Z,54.04
2018-05-04T03:54:45.093Z,54.08
2018-05-04T03:55:47.658Z,54.21
2018-05-04T03:56:50.218Z,54.24
2018-05-04T03:58:04.656Z,54.28
2018-05-04T03:59:18.982Z,54.32
2018-05-04T04:00:33.426Z,54.34
2018-05-04T04:01:47.778Z,54.42
2018-05-04T04:03:02.202Z,54.46
2018-05-04T04:04:13.184Z,54.46
2018-05-04T04:05:15.673Z,54.52
2018-05-04T04:06:18.159Z,54.55
2018-05-04T04:07:20.645Z,54.57
2018-05-04T04:08:23.179Z,54.55
2018-05-04T04:09:25.658Z,54.56
2018-05-04T04:10:28.141Z,54.61
2018-05-04T04:11:30.613Z,54.64
2018-05-04T04:12:33.092Z,54.62
2018-05-04T04:13:35.623Z,54.64
2018-05-04T04:14:38.127Z,54.64
2018-05-04T04:15:40.621Z,54.69
2018-05-04T04:16:43.095Z,54.68
2018-05-04T04:17:45.567Z,54.71
2018-05-04T04:18:48.076Z,54.70
2018-05-04T04:19:50.557Z,54.72
2018-05-04T04:20:53.049Z,54.70
2018-05-04T04:21:55.559Z,54.71
2018-05-04T04:22:58.049Z,54.72
2018-05-04T04:24:00.633Z,54.74
2018-05-04T04:25:03.873Z,54.75
2018-05-04T04:26:06.360Z,54.76
2018-05-04T04:27:08.869Z,54.71
2018-05-04T04:28:11.416Z,54.75
2018-05-04T04:29:13.870Z,54.70
2018-05-04T04:30:16.371Z,54.75
2018-05-04T04:31:18.842Z,54.74
2018-05-04T04:32:21.324Z,54.75
2018-05-04T04:33:23.806Z,54.79
2018-05-04T04:34:26.338Z,54.80
2018-05-04T04:35:28.852Z,54.78
2018-05-04T04:36:31.348Z,54.79
2018-05-04T04:37:33.818Z,54.79
2018-05-04T04:38:36.298Z,54.77
2018-05-04T04:39:38.802Z,54.79
2018-05-04T04:40:41.299Z,54.75
2018-05-04T04:41:43.883Z,54.82
2018-05-04T04:42:46.355Z,54.78
2018-05-04T04:43:48.848Z,54.91
2018-05-04T04:44:51.358Z,54.87
2018-05-04T04:45:53.853Z,54.82
2018-05-04T04:46:56.327Z,54.78
2018-05-04T04:47:58.813Z,54.77
2018-05-04T04:49:01.301Z,54.76
2018-05-04T04:50:03.857Z,54.70
2018-05-04T04:51:06.417Z,54.65
2018-05-04T04:52:08.896Z,54.60
2018-05-04T04:53:11.393Z,54.51
2018-05-04T04:54:13.885Z,54.54
2018-05-04T04:55:16.382Z,54.52
2018-05-04T04:56:18.865Z,54.69
2018-05-04T04:57:21.449Z,54.78
2018-05-04T04:58:23.932Z,54.77
2018-05-04T04:59:26.436Z,54.75
2018-05-04T05:00:28.944Z,54.72
2018-05-04T05:01:31.431Z,54.84
2018-05-04T05:02:33.960Z,54.84
2018-05-04T05:03:36.449Z,54.83
2018-05-04T05:04:38.953Z,54.76
2018-05-04T05:05:41.464Z,54.79
2018-05-04T05:06:43.953Z,54.78
2018-05-04T05:07:46.452Z,54.73
2018-05-04T05:08:48.942Z,54.71
2018-05-04T05:09:51.437Z,54.73
2018-05-04T05:10:53.946Z,54.72
2018-05-04T05:11:56.440Z,54.70
2018-05-04T05:12:58.936Z,54.67
2018-05-04T05:14:01.421Z,54.62
2018-05-04T05:15:03.923Z,54.68
2018-05-04T05:16:06.555Z,54.90
2018-05-04T05:17:09.059Z,54.86
2018-05-04T05:18:11.535Z,54.79
2018-05-04T05:19:14.016Z,54.74
2018-05-04T05:20:16.509Z,54.76
2018-05-04T05:21:19.018Z,54.81
2018-05-04T05:22:21.514Z,54.81
2018-05-04T05:23:23.990Z,54.81
2018-05-04T05:24:26.476Z,54.78
2018-05-04T05:25:28.948Z,54.76
2018-05-04T05:26:31.511Z,54.68
2018-05-04T05:27:34.015Z,54.65
2018-05-04T05:28:36.538Z,54.81
2018-05-04T05:29:39.060Z,54.92
2018-05-04T05:30:41.566Z,54.88
2018-05-04T05:31:44.073Z,54.65
2018-05-04T05:32:46.547Z,54.27
2018-05-04T05:33:49.040Z,54.14
2018-05-04T05:34:51.582Z,54.05
2018-05-04T05:35:54.142Z,53.72
2018-05-04T05:36:56.728Z,53.49
2018-05-04T05:37:59.237Z,53.37
2018-05-04T05:39:01.725Z,53.18
2018-05-04T05:40:04.284Z,52.93
2018-05-04T05:41:06.844Z,52.57
2018-05-04T05:42:09.352Z,52.32
2018-05-04T05:43:11.855Z,52.07
2018-05-04T05:44:14.349Z,51.72
2018-05-04T05:45:16.865Z,51.34
2018-05-04T05:46:19.341Z,50.91
2018-05-04T05:47:21.879Z,51.30
2018-05-04T05:48:24.359Z,51.84
2018-05-04T05:49:26.856Z,51.93
2018-05-04T05:50:29.372Z,51.41
2018-05-04T05:51:31.929Z,51.41
2018-05-04T05:52:34.447Z,51.40
2018-05-04T05:53:36.964Z,51.54
2018-05-04T05:54:39.482Z,51.55
2018-05-04T05:55:41.955Z,50.87
2018-05-04T05:56:44.445Z,50.83
2018-05-04T05:57:46.968Z,50.92
2018-05-04T05:58:49.447Z,50.92
2018-05-04T05:59:51.946Z,51.04
2018-05-04T06:00:54.451Z,51.19
2018-05-04T06:01:56.948Z,51.20
2018-05-04T06:02:59.457Z,51.22
2018-05-04T06:04:02.074Z,51.27
2018-05-04T06:05:04.597Z,51.25
2018-05-04T06:06:07.102Z,51.22
2018-05-04T06:07:09.714Z,51.20
2018-05-04T06:08:12.278Z,51.19
2018-05-04T06:09:14.850Z,51.11
2018-05-04T06:10:17.397Z,51.04
2018-05-04T06:11:19.961Z,50.96
2018-05-04T06:12:22.503Z,50.91
2018-05-04T06:13:25.073Z,50.86
2018-05-04T06:14:27.544Z,50.79
2018-05-04T06:15:30.040Z,50.73
2018-05-04T06:16:32.532Z,50.69
2018-05-04T06:17:35.040Z,50.63
2018-05-04T06:18:37.530Z,50.60
2018-05-04T06:19:40.038Z,50.52
2018-05-04T06:20:42.645Z,50.47
2018-05-04T06:21:45.148Z,50.44
2018-05-04T06:22:47.640Z,50.40
2018-05-04T06:23:50.148Z,50.37
2018-05-04T06:24:52.728Z,50.34
2018-05-04T06:25:55.221Z,50.30
2018-05-04T06:26:57.725Z,50.27
2018-05-04T06:28:00.212Z,50.22
2018-05-04T06:29:02.722Z,50.18
2018-05-04T06:30:05.227Z,50.14
2018-05-04T06:31:07.733Z,50.13
2018-05-04T06:32:10.240Z,50.13
2018-05-04T06:33:12.720Z,50.12
2018-05-04T06:34:15.526Z,50.09
2018-05-04T06:35:18.009Z,50.07
2018-05-04T06:36:20.505Z,50.06
2018-05-04T06:37:23.010Z,50.04
2018-05-04T06:38:25.487Z,50.03
2018-05-04T06:39:27.970Z,50.01
2018-05-04T06:40:30.517Z,50.00
2018-05-04T06:41:33.079Z,49.99
2018-05-04T06:42:35.638Z,49.99
2018-05-04T06:43:38.259Z,49.98
2018-05-04T06:44:40.847Z,49.95
2018-05-04T06:45:43.353Z,49.94
2018-05-04T06:46:45.812Z,49.92
2018-05-04T06:47:48.312Z,49.90
2018-05-04T06:48:50.782Z,49.88
2018-05-04T06:49:53.309Z,49.88
2018-05-04T06:50:55.819Z,49.88
2018-05-04T06:51:58.323Z,49.87
2018-05-04T06:53:00.813Z,49.87
2018-05-04T06:54:03.305Z,49.85
2018-05-04T06:55:05.809Z,49.84
2018-05-04T06:56:08.316Z,49.83
2018-05-04T06:57:10.794Z,49.82
2018-05-04T06:58:13.317Z,49.82
2018-05-04T06:59:15.901Z,49.80
2018-05-04T07:00:18.366Z,49.78
2018-05-04T07:01:20.853Z,49.75
2018-05-04T07:02:23.336Z,49.74
2018-05-04T07:03:25.810Z,49.73
2018-05-04T07:04:28.324Z,49.73
2018-05-04T07:05:30.839Z,49.72
2018-05-04T07:06:33.351Z,49.70
2018-05-04T07:07:35.822Z,49.70
2018-05-04T07:08:38.715Z,49.68
2018-05-04T07:09:41.229Z,49.67
2018-05-04T07:10:43.718Z,49.66
2018-05-04T07:11:46.238Z,49.66
2018-05-04T07:12:48.750Z,49.66
2018-05-04T07:13:51.293Z,49.64
2018-05-04T07:14:53.811Z,49.66
2018-05-04T07:15:56.306Z,49.65
2018-05-04T07:16:58.806Z,49.65
2018-05-04T07:18:01.303Z,49.62
2018-05-04T07:19:03.842Z,49.61
2018-05-04T07:20:06.371Z,49.61
2018-05-04T07:21:08.921Z,49.59
2018-05-04T07:22:11.462Z,49.58
2018-05-04T07:23:14.036Z,49.56
2018-05-04T07:24:16.581Z,49.54
2018-05-04T07:25:19.157Z,49.51
2018-05-04T07:26:21.676Z,49.47
2018-05-04T07:27:24.181Z,49.45
2018-05-04T07:28:26.654Z,49.45
2018-05-04T07:29:29.127Z,49.46
2018-05-04T07:30:31.661Z,49.43
2018-05-04T07:31:34.162Z,49.45
2018-05-04T07:32:36.662Z,49.45
2018-05-04T07:33:39.235Z,49.46
2018-05-04T07:34:41.795Z,49.45
2018-05-04T07:35:44.297Z,49.43
2018-05-04T07:36:46.836Z,49.41
2018-05-04T07:37:49.371Z,49.39
2018-05-04T07:38:51.816Z,49.38
2018-05-04T07:39:54.331Z,49.37
2018-05-04T07:40:56.811Z,49.36
2018-05-04T07:41:59.325Z,49.35
2018-05-04T07:43:01.798Z,49.33
2018-05-04T07:44:04.289Z,49.34
2018-05-04T07:45:06.853Z,49.34
2018-05-04T07:46:09.326Z,49.33
2018-05-04T07:47:11.836Z,49.30
2018-05-04T07:48:14.340Z,49.29
2018-05-04T07:49:16.856Z,49.28
2018-05-04T07:50:19.365Z,49.25
2018-05-04T07:51:21.841Z,49.25
2018-05-04T07:52:24.322Z,49.24
2018-05-04T07:53:26.814Z,49.23
2018-05-04T07:54:29.335Z,49.21
2018-05-04T07:55:31.839Z,49.21
2018-05-04T07:56:37.049Z,49.21
2018-05-04T07:57:39.553Z,49.20
2018-05-04T07:58:42.055Z,49.19
2018-05-04T07:59:44.569Z,49.17
2018-05-04T08:00:47.081Z,49.14
2018-05-04T08:01:49.565Z,49.11
2018-05-04T08:02:52.124Z,49.11
2018-05-04T08:03:54.647Z,49.10
2018-05-04T08:04:57.197Z,49.08
2018-05-04T08:05:59.686Z,49.05
2018-05-04T08:07:02.172Z,49.03
2018-05-04T08:08:04.690Z,49.02
2018-05-04T08:09:07.195Z,48.99
2018-05-04T08:10:09.700Z,48.97
2018-05-04T08:11:12.211Z,48.96
2018-05-04T08:12:14.697Z,48.95
2018-05-04T08:13:17.236Z,48.93
2018-05-04T08:14:19.796Z,48.93
2018-05-04T08:15:22.355Z,48.92
2018-05-04T08:16:24.826Z,48.91
2018-05-04T08:17:27.330Z,48.90
2018-05-04T08:18:29.823Z,48.89
2018-05-04T08:19:32.302Z,48.88
2018-05-04T08:20:34.810Z,48.88
2018-05-04T08:21:37.301Z,48.87
2018-05-04T08:22:39.784Z,48.83
2018-05-04T08:23:42.299Z,48.80
2018-05-04T08:24:44.986Z,48.79
2018-05-04T08:25:47.641Z,48.78
2018-05-04T08:26:50.208Z,48.77
2018-05-04T08:27:52.694Z,48.75
2018-05-04T08:28:55.202Z,48.75
2018-05-04T08:29:57.688Z,48.72
2018-05-04T08:31:00.180Z,48.72
2018-05-04T08:32:02.669Z,48.73
2018-05-04T08:33:05.159Z,48.74
2018-05-04T08:34:07.689Z,48.73
2018-05-04T08:35:10.222Z,48.73
2018-05-04T08:36:12.739Z,48.73
2018-05-04T08:37:15.301Z,48.72
2018-05-04T08:38:17.859Z,48.74
2018-05-04T08:39:20.421Z,48.74
2018-05-04T08:40:22.978Z,48.73
2018-05-04T08:41:25.469Z,48.73
2018-05-04T08:42:27.996Z,48.71
2018-05-04T08:43:30.558Z,48.69
2018-05-04T08:44:33.064Z,48.67
2018-05-04T08:45:35.574Z,48.65
2018-05-04T08:46:38.097Z,48.65
2018-05-04T08:47:40.591Z,48.65
2018-05-04T08:48:43.061Z,48.65
2018-05-04T08:49:45.569Z,48.62
2018-05-04T08:50:48.098Z,48.61
2018-05-04T08:51:50.588Z,48.62
2018-05-04T08:52:53.073Z,48.62
2018-05-04T08:53:55.564Z,48.64
2018-05-04T08:54:58.098Z,48.63
2018-05-04T08:56:00.592Z,48.60
2018-05-04T08:57:03.176Z,48.59
2018-05-04T08:58:05.609Z,48.59
2018-05-04T08:59:08.099Z,48.59
2018-05-04T09:00:10.620Z,48.59
2018-05-04T09:01:13.133Z,48.58
2018-05-04T09:02:15.626Z,48.58
2018-05-04T09:03:18.179Z,48.58
2018-05-04T09:04:20.669Z,48.58
2018-05-04T09:05:23.239Z,48.58
2018-05-04T09:06:25.716Z,48.56
2018-05-04T09:07:28.243Z,48.52
2018-05-04T09:08:30.728Z,48.48
2018-05-04T09:09:33.221Z,48.48
2018-05-04T09:10:35.794Z,48.45
2018-05-04T09:11:38.325Z,48.44
2018-05-04T09:12:40.838Z,48.43
2018-05-04T09:13:43.337Z,48.43
2018-05-04T09:14:45.810Z,48.45
2018-05-04T09:15:48.343Z,48.43
2018-05-04T09:16:50.858Z,48.44
2018-05-04T09:17:53.351Z,48.40
2018-05-04T09:18:55.851Z,48.38
2018-05-04T09:19:58.330Z,48.34
2018-05-04T09:21:00.811Z,48.29
2018-05-04T09:22:03.315Z,48.31
2018-05-04T09:23:05.896Z,48.34
2018-05-04T09:24:08.453Z,48.34
2018-05-04T09:25:10.963Z,48.31
2018-05-04T09:26:13.487Z,48.32
2018-05-04T09:27:15.991Z,48.30
2018-05-04T09:28:18.499Z,48.26
2018-05-04T09:29:21.011Z,48.26
2018-05-04T09:30:23.532Z,48.25
2018-05-04T09:31:26.037Z,48.29
2018-05-04T09:32:28.528Z,48.26
2018-05-04T09:33:31.087Z,48.24
2018-05-04T09:34:33.595Z,48.24
2018-05-04T09:35:36.081Z,48.15
2018-05-04T09:36:38.593Z,48.17
2018-05-04T09:37:41.082Z,48.14
2018-05-04T09:38:43.577Z,48.15
2018-05-04T09:39:46.061Z,47.97
2018-05-04T09:40:48.556Z,47.97
2018-05-04T09:41:51.157Z,47.95
2018-05-04T09:42:53.631Z,47.99
2018-05-04T09:43:56.135Z,47.88
2018-05-04T09:44:58.621Z,47.85
2018-05-04T09:46:01.128Z,47.85
2018-05-04T09:47:03.617Z,47.80
2018-05-04T09:48:06.086Z,47.76
2018-05-04T09:49:08.581Z,47.75
2018-05-04T09:50:11.099Z,47.79
2018-05-04T09:51:13.592Z,47.80
2018-05-04T09:52:16.110Z,47.78
2018-05-04T09:53:18.602Z,47.78
2018-05-04T09:54:21.089Z,47.78
2018-05-04T09:55:23.557Z,47.76
2018-05-04T09:56:26.064Z,47.77
2018-05-04T09:57:28.570Z,47.74
2018-05-04T09:58:31.095Z,47.68
2018-05-04T09:59:33.661Z,47.63
2018-05-04T10:00:36.205Z,47.66
2018-05-04T10:01:38.679Z,47.69
2018-05-04T10:02:41.201Z,47.66
2018-05-04T10:03:43.689Z,47.65
2018-05-04T10:04:46.234Z,47.64
2018-05-04T10:05:48.742Z,47.63
2018-05-04T10:06:51.271Z,47.62
2018-05-04T10:07:53.829Z,47.62
2018-05-04T10:08:56.328Z,47.57
2018-05-04T10:09:58.816Z,47.55
2018-05-04T10:11:01.321Z,47.58
2018-05-04T10:12:03.829Z,47.60
2018-05-04T10:13:06.337Z,47.60
2018-05-04T10:14:08.820Z,47.61
2018-05-04T10:15:11.355Z,47.58
2018-05-04T10:16:13.860Z,47.61
2018-05-04T10:17:16.330Z,47.59
2018-05-04T10:18:18.836Z,47.59
2018-05-04T10:19:21.318Z,47.60
2018-05-04T10:20:23.815Z,47.65
2018-05-04T10:21:26.287Z,47.68
2018-05-04T10:22:28.789Z,47.70
2018-05-04T10:23:31.297Z,47.70
2018-05-04T10:24:33.789Z,47.67
2018-05-04T10:25:36.286Z,47.65
2018-05-04T10:26:38.787Z,47.56
2018-05-04T10:27:41.277Z,47.59
2018-05-04T10:28:43.784Z,47.58
2018-05-04T10:29:46.296Z,47.47
2018-05-04T10:30:48.800Z,47.43
2018-05-04T10:31:51.289Z,47.41
2018-05-04T10:32:53.791Z,47.36
2018-05-04T10:33:56.297Z,47.32
2018-05-04T10:34:58.801Z,47.41
2018-05-04T10:36:01.311Z,47.40
2018-05-04T10:37:03.782Z,47.35
2018-05-04T10:38:06.484Z,47.28
2018-05-04T10:39:09.638Z,47.24
2018-05-04T10:40:12.182Z,47.27
2018-05-04T10:41:14.667Z,47.30
2018-05-04T10:42:17.149Z,47.27
2018-05-04T10:43:19.639Z,47.33
2018-05-04T10:44:22.126Z,47.34
2018-05-04T10:45:24.598Z,47.31
2018-05-04T10:46:27.112Z,47.28
2018-05-04T10:47:29.601Z,47.22
2018-05-04T10:48:32.073Z,47.16
2018-05-04T10:49:34.581Z,47.20
2018-05-04T10:50:37.263Z,47.29
2018-05-04T10:51:39.793Z,47.29
2018-05-04T10:52:42.299Z,47.25
2018-05-04T10:53:44.797Z,47.29
2018-05-04T10:54:47.290Z,47.22
2018-05-04T10:55:49.775Z,47.17
2018-05-04T10:56:52.274Z,47.08
2018-05-04T10:57:54.760Z,47.06
2018-05-04T10:58:57.265Z,47.03
2018-05-04T10:59:59.785Z,47.01
2018-05-04T11:01:02.255Z,47.00
2018-05-04T11:02:04.754Z,47.07
2018-05-04T11:03:07.241Z,47.04
2018-05-04T11:04:09.729Z,47.00
2018-05-04T11:05:12.226Z,46.96
2018-05-04T11:06:14.725Z,46.91
2018-05-04T11:07:17.228Z,46.94
2018-05-04T11:08:19.812Z,46.87
2018-05-04T11:09:22.320Z,46.81
2018-05-04T11:10:24.819Z,46.71
2018-05-04T11:11:27.290Z,46.65
2018-05-04T11:12:29.776Z,46.61
2018-05-04T11:13:32.246Z,46.61
2018-05-04T11:14:34.710Z,46.69
2018-05-04T11:15:37.241Z,46.70
2018-05-04T11:16:39.784Z,46.73
2018-05-04T11:17:42.261Z,46.66
2018-05-04T11:18:44.775Z,46.63
2018-05-04T11:19:47.245Z,46.62
2018-05-04T11:20:49.774Z,46.64
2018-05-04T11:21:52.251Z,46.56
2018-05-04T11:22:54.755Z,46.52
2018-05-04T11:23:57.356Z,46.46
2018-05-04T11:24:59.794Z,46.46
2018-05-04T11:26:02.329Z,46.41
2018-05-04T11:27:04.892Z,46.38
2018-05-04T11:28:07.363Z,46.40
2018-05-04T11:29:10.199Z,46.46
2018-05-04T11:30:12.704Z,46.53
2018-05-04T11:31:15.231Z,46.54
2018-05-04T11:32:17.728Z,46.54
2018-05-04T11:33:20.212Z,46.51
2018-05-04T11:34:22.723Z,46.42
2018-05-04T11:35:25.208Z,46.29
2018-05-04T11:36:27.748Z,46.25
2018-05-04T11:37:30.239Z,46.29
2018-05-04T11:38:32.745Z,46.35
2018-05-04T11:39:35.239Z,46.35
2018-05-04T11:40:37.712Z,46.34
2018-05-04T11:41:40.236Z,46.34
2018-05-04T11:42:42.712Z,46.31
2018-05-04T11:43:45.205Z,46.24
2018-05-04T11:44:47.732Z,46.20
2018-05-04T11:45:50.207Z,46.20
2018-05-04T11:46:52.716Z,46.21
2018-05-04T11:47:55.288Z,46.17
2018-05-04T11:48:57.797Z,46.17
2018-05-04T11:50:00.267Z,46.19
2018-05-04T11:51:02.753Z,46.26
2018-05-04T11:52:05.283Z,46.32
2018-05-04T11:53:07.808Z,46.37
2018-05-04T11:54:10.370Z,46.36
2018-05-04T11:55:12.932Z,46.35
2018-05-04T11:56:15.435Z,46.33
2018-05-04T11:57:17.948Z,46.19
2018-05-04T11:58:20.440Z,46.12
2018-05-04T11:59:22.962Z,46.09
2018-05-04T12:00:25.596Z,46.13
2018-05-04T12:01:28.081Z,46.09
2018-05-04T12:02:30.698Z,46.14
2018-05-04T12:03:33.124Z,46.17
2018-05-04T12:04:35.630Z,46.17
2018-05-04T12:05:38.212Z,46.15
2018-05-04T12:06:40.745Z,46.11
2018-05-04T12:07:43.288Z,46.12
2018-05-04T12:08:45.795Z,46.12
2018-05-04T12:09:48.280Z,46.10
2018-05-04T12:10:50.813Z,46.07
2018-05-04T12:11:53.305Z,46.08
2018-05-04T12:12:55.805Z,46.13
2018-05-04T12:13:58.403Z,46.16
2018-05-04T12:15:00.901Z,46.16
2018-05-04T12:16:03.406Z,46.03
2018-05-04T12:17:05.893Z,46.00
2018-05-04T12:18:08.409Z,46.01
2018-05-04T12:19:11.638Z,45.97
2018-05-04T12:20:14.106Z,46.01
2018-05-04T12:21:17.012Z,46.02
2018-05-04T12:22:19.492Z,45.98
2018-05-04T12:23:22.044Z,45.98
2018-05-04T12:24:24.558Z,46.19
2018-05-04T12:25:27.043Z,46.15
2018-05-04T12:26:29.552Z,46.08
2018-05-04T12:27:32.061Z,46.01
2018-05-04T12:28:34.568Z,45.93
2018-05-04T12:29:37.081Z,46.00
2018-05-04T12:30:39.653Z,45.93
2018-05-04T12:31:42.141Z,45.89
2018-05-04T12:32:44.618Z,45.82
2018-05-04T12:33:47.120Z,45.77
2018-05-04T12:34:49.639Z,45.70
2018-05-04T12:35:52.115Z,45.79
2018-05-04T12:36:54.605Z,45.84
2018-05-04T12:37:57.158Z,45.76
2018-05-04T12:38:59.666Z,45.63
2018-05-04T12:40:02.135Z,45.66
2018-05-04T12:41:04.603Z,45.70
2018-05-04T12:42:07.121Z,45.61
2018-05-04T12:43:09.632Z,45.60
2018-05-04T12:44:12.175Z,45.62
2018-05-04T12:45:14.645Z,45.58
2018-05-04T12:46:17.134Z,45.60
2018-05-04T12:47:19.636Z,45.57
2018-05-04T12:48:22.133Z,45.62
2018-05-04T12:49:24.660Z,45.67
2018-05-04T12:50:27.144Z,45.61
2018-05-04T12:51:29.652Z,45.61
2018-05-04T12:52:32.163Z,45.60
2018-05-04T12:53:34.714Z,45.64
2018-05-04T12:54:37.150Z,45.69
2018-05-04T12:55:39.619Z,45.71
2018-05-04T12:56:42.109Z,45.70
2018-05-04T12:57:44.594Z,45.68
2018-05-04T12:58:47.085Z,45.69
2018-05-04T12:59:49.607Z,45.64
2018-05-04T13:00:52.079Z,45.61
2018-05-04T13:01:54.587Z,45.59
2018-05-04T13:02:57.077Z,45.63
2018-05-04T13:03:59.633Z,45.63
2018-05-04T13:05:02.171Z,45.67
2018-05-04T13:06:04.664Z,45.63
2018-05-04T13:07:07.183Z,45.59
2018-05-04T13:08:09.661Z,45.55
2018-05-04T13:09:12.167Z,45.62
2018-05-04T13:10:14.683Z,45.63
2018-05-04T13:11:17.300Z,45.61
2018-05-04T13:12:19.846Z,45.58
2018-05-04T13:13:22.333Z,45.59
2018-05-04T13:14:24.826Z,45.53
2018-05-04T13:15:27.345Z,45.54
2018-05-04T13:16:29.878Z,45.55
2018-05-04T13:17:32.440Z,45.62
2018-05-04T13:18:34.892Z,45.63
2018-05-04T13:19:37.454Z,45.66
2018-05-04T13:20:39.963Z,45.71
2018-05-04T13:21:42.456Z,45.73
2018-05-04T13:22:45.033Z,45.76
2018-05-04T13:23:47.522Z,45.79
2018-05-04T13:24:50.048Z,45.83
2018-05-04T13:25:52.540Z,45.86